Terminal Aerodrome Forecast
Issued by NWS

Home | Current Version | Previous Version | Graphics & Text | Print | Product List | Glossary On
Versions: 1 2 3 4 5 6 7 8 9 10 11 12 13 14
734
FTUS42 KMHX 070529
TAFOAJ
TAF
KOAJ 070529Z 0706/0806 30005KT P6SM SCT005 OVC007
     FM070900 31003KT 5SM BR SCT007 BKN010
     FM071200 32004KT P6SM SCT030
     FM071500 33006KT P6SM SCT030
     FM072300 VRB03KT P6SM SCT030
      AMD LTD TO CLD VIS AND WIND=

USA.gov is the U.S. government's official web portal to all federal, state and local government web resources and services.